Estación Meteorológica Peña el Pijo (Robertgarden) [ 06/25/17 17:35:54 CEST ]

Fecha Hora Presion(HPa) Temp (°C) Humedad % Rocio (°C) Viento ( m/s) Direccion Lluvia 1Hora(mm) Lluvia 24H(mm) LLuvia Total(mm)
2017-May-07 01:01:49 1012.600 8.5 71 3.5         1390.83
2017-May-07 02:01:56 1012.600 7.5 75 3.3         1390.83
2017-May-07 03:02:19 1012.000 6.9 76 2.9         1390.83
2017-May-07 04:02:13 1011.700 6.4 78 2.8         1390.83
2017-May-07 05:10:08 1011.300 5.9 79 2.5         1390.83
2017-May-07 06:01:47 1011.400 5.4 80 2.2         1390.83
2017-May-07 07:01:49 1011.600 5.1 81 2.1         1390.83
2017-May-07 08:01:47 1012.000 6.6 83 3.9         1390.83
2017-May-07 09:01:34 1012.000 12.8 75 8.5         1390.83
2017-May-07 10:01:38 1012.000 17.9 52 7.8         1390.83
2017-May-07 11:01:41 1012.100 22.4 41 8.5         1390.83
2017-May-07 12:01:41 1012.100 26.1 34 8.9         1390.83
2017-May-07 13:01:35 1011.600 27.3 30 8.2         1390.83
2017-May-07 14:01:41 1010.900 26.9 29 7.3         1390.83
2017-May-07 15:01:39 1010.500 28.1 29 8.3         1390.83
2017-May-07 16:01:48 1010.000 28.6 28 8.2         1390.83
2017-May-07 17:01:44 1009.600 28.4 28 8.0         1390.83
2017-May-07 18:01:53 1009.600 27.3 28 7.1         1390.83
2017-May-07 19:01:37 1009.400 25.4 32 7.5         1390.83
2017-May-07 20:01:50 1009.500 21.9 39 7.3         1390.83
2017-May-07 21:01:51 1009.800 18.9 45 6.6         1390.83
2017-May-07 22:01:37 1010.700 15.9 53 6.3         1390.83
2017-May-07 23:01:38 1011.300 13.9 58 5.8         1390.83

Temperatura Máxima:28°    Temperatura Mínima:
Presión Máxima:1012.600 Hpa    Presión Mínima:1009.400 Hpa


Volver